Terminal Aerodrome Forecast
Issued by NWS

Home | Current Version | Previous Version | Text Only | Print | Product List | Glossary On
Versions: 1 2 3 4 5 6 7 8 9 10 11 12 13 14 15 16 17 18 19 20 21 22
000
FTUS41 KBTV 251135
TAFSLK
TAF
KSLK 251135Z 2512/2612 23006KT 4SM BR OVC002
     FM251400 23006KT P6SM BKN040
      TEMPO 2514/2516 4SM BR BKN002
     FM251700 22010KT P6SM OVC040
     FM252000 22009KT P6SM -SHRA OVC030
     FM252300 23008KT P6SM OVC020
     FM260600 25008KT 4SM BR OVC020=

USA.gov is the U.S. government's official web portal to all federal, state and local government web resources and services.